createdAt,value
2019-04-23T00:04:55.501Z,5.45
2019-04-23T00:11:08.769Z,5.62
2019-04-23T00:17:11.611Z,5.80
2019-04-23T00:29:18.564Z,6.12
2019-04-23T00:35:12.660Z,6.00
2019-04-23T00:41:17.822Z,6.12
2019-04-23T00:47:26.795Z,6.22
2019-04-23T00:53:26.956Z,5.12
2019-04-23T00:59:39.146Z,5.65
2019-04-23T01:05:35.581Z,6.15
2019-04-23T01:11:43.329Z,5.47
2019-04-23T01:17:57.368Z,5.78
2019-04-23T01:23:40.149Z,5.97
2019-04-23T01:42:23.523Z,6.12
2019-04-23T01:48:13.171Z,6.47
2019-04-23T01:54:17.529Z,6.08
2019-04-23T02:00:28.960Z,6.20
2019-04-23T02:06:29.711Z,6.35
2019-04-23T02:12:33.065Z,6.37
2019-04-23T02:18:37.327Z,6.25
2019-04-23T02:24:47.935Z,5.90
2019-04-23T02:37:00.359Z,6.83
2019-04-23T02:43:09.407Z,6.35
2019-04-23T02:49:07.164Z,6.62
2019-04-23T02:55:29.242Z,6.62
2019-04-23T03:07:23.833Z,6.47
2019-04-23T03:19:59.368Z,6.78
2019-04-23T03:25:38.205Z,6.87
2019-04-23T03:49:55.726Z,6.85
2019-04-23T04:02:10.676Z,7.30
2019-04-23T04:08:18.352Z,7.60
2019-04-23T04:20:18.709Z,7.50
2019-04-23T04:26:20.685Z,6.80
2019-04-23T04:32:42.914Z,6.60
2019-04-23T04:50:39.969Z,8.33
2019-04-23T04:56:34.249Z,7.33
2019-04-23T05:02:55.401Z,8.03
2019-04-23T05:08:48.108Z,8.15
2019-04-23T05:14:58.843Z,8.73
2019-04-23T05:20:53.457Z,7.85
2019-04-23T05:26:58.476Z,8.28
2019-04-23T05:33:05.146Z,7.72
2019-04-23T05:45:08.289Z,7.75
2019-04-23T05:57:18.390Z,7.70
2019-04-23T06:03:31.944Z,7.95
2019-04-23T06:09:30.487Z,8.70
2019-04-23T06:15:38.122Z,8.10
2019-04-23T06:21:52.483Z,7.95
2019-04-23T06:27:48.290Z,7.45
2019-04-23T06:33:53.924Z,8.05
2019-04-23T06:39:55.565Z,8.05
2019-04-23T06:46:01.523Z,7.87
2019-04-23T06:58:13.597Z,8.90
2019-04-23T07:04:18.029Z,9.55
2019-04-23T07:10:18.447Z,8.45
2019-04-23T07:16:21.629Z,8.95
2019-04-23T07:22:45.619Z,9.43
2019-04-23T07:34:41.600Z,9.38
2019-04-23T07:41:07.738Z,9.20
2019-04-23T07:47:18.996Z,10.38
2019-04-23T07:59:25.368Z,9.93
2019-04-23T08:11:34.797Z,10.58
2019-04-23T08:17:27.826Z,10.75
2019-04-23T08:30:00.466Z,10.48
2019-04-23T08:36:12.246Z,11.05
2019-04-23T08:42:36.713Z,11.12
2019-04-23T08:48:33.844Z,10.78
2019-04-23T08:54:39.234Z,10.00
2019-04-23T09:00:33.042Z,10.50
2019-04-23T09:06:27.782Z,10.60
2019-04-23T09:24:47.279Z,11.53
2019-04-23T09:31:09.032Z,11.28
2019-04-23T09:37:19.481Z,11.30
2019-04-23T09:43:25.308Z,10.90
2019-04-23T09:49:33.246Z,10.70
2019-04-23T09:55:38.886Z,11.45
2019-04-23T10:01:39.426Z,11.35
2019-04-23T10:07:34.990Z,11.08
2019-04-23T10:13:27.514Z,11.68
2019-04-23T10:19:32.871Z,11.80
2019-04-23T10:25:36.094Z,11.05
2019-04-23T10:31:40.034Z,10.88
2019-04-23T10:37:49.076Z,11.83
2019-04-23T10:43:52.219Z,10.72
2019-04-23T10:50:40.611Z,11.70
2019-04-23T10:56:42.638Z,11.48
2019-04-23T11:08:41.220Z,12.45
2019-04-23T11:14:58.339Z,10.80
2019-04-23T11:20:59.445Z,11.55
2019-04-23T11:27:10.388Z,11.93
2019-04-23T11:33:09.200Z,11.57
2019-04-23T11:39:05.534Z,10.48
2019-04-23T11:45:24.784Z,10.58
2019-04-23T11:57:42.563Z,9.85
2019-04-23T12:03:36.700Z,9.88
2019-04-23T12:09:47.022Z,10.32
2019-04-23T12:22:02.910Z,11.15
2019-04-23T12:27:47.054Z,11.45
2019-04-23T12:34:09.884Z,11.00
2019-04-23T12:40:19.201Z,11.28
2019-04-23T12:46:17.867Z,10.53
2019-04-23T12:52:25.516Z,10.30
2019-04-23T12:58:27.649Z,10.25
2019-04-23T13:04:43.173Z,8.98
2019-04-23T13:17:05.528Z,8.20
2019-04-23T13:23:13.577Z,9.03
2019-04-23T13:29:16.105Z,7.42
2019-04-23T13:35:41.976Z,6.62
2019-04-23T13:41:20.405Z,7.15
2019-04-23T13:47:38.299Z,6.58
2019-04-23T13:53:40.579Z,5.95
2019-04-23T14:05:56.809Z,6.40
2019-04-23T14:11:51.283Z,5.97
2019-04-23T14:18:19.287Z,5.72
2019-04-23T14:36:26.967Z,6.17
2019-04-23T14:42:44.582Z,6.33
2019-04-23T14:48:47.971Z,6.55
2019-04-23T14:55:27.994Z,6.33
2019-04-23T15:07:22.915Z,5.90
2019-04-23T15:13:39.500Z,5.42
2019-04-23T15:19:45.511Z,4.92
2019-04-23T15:26:39.430Z,4.78
2019-04-23T15:31:55.594Z,4.30
2019-04-23T15:38:27.057Z,4.08
2019-04-23T15:44:16.698Z,4.33
2019-04-23T15:50:22.978Z,4.40
2019-04-23T15:56:35.942Z,4.90
2019-04-23T16:02:05.770Z,5.10
2019-04-23T16:08:49.993Z,5.37
2019-04-23T16:14:49.687Z,5.25
2019-04-23T16:20:54.415Z,6.08
2019-04-23T16:27:04.333Z,6.08
2019-04-23T16:33:08.757Z,6.12
2019-04-23T16:39:11.879Z,7.20
2019-04-23T16:45:21.199Z,7.75
2019-04-23T16:57:30.457Z,7.90
2019-04-23T17:03:31.551Z,8.30
2019-04-23T17:09:48.100Z,7.90
2019-04-23T17:15:53.747Z,8.08
2019-04-23T17:21:47.565Z,7.85
2019-04-23T17:28:00.222Z,8.23
2019-04-23T17:46:27.098Z,5.75
2019-04-23T17:52:45.250Z,5.72
2019-04-23T18:10:56.292Z,4.58
2019-04-23T18:17:13.477Z,3.67
2019-04-23T18:23:22.234Z,3.72
2019-04-23T18:29:19.292Z,5.05
2019-04-23T18:35:33.996Z,3.83
2019-04-23T18:41:13.750Z,3.42
2019-04-23T18:47:35.385Z,3.98
2019-04-23T18:53:32.105Z,4.40
2019-04-23T18:59:40.725Z,6.87
2019-04-23T19:06:00.309Z,5.03
2019-04-23T19:12:07.006Z,5.40
2019-04-23T19:18:12.377Z,6.12
2019-04-23T19:24:21.909Z,6.40
2019-04-23T19:30:13.501Z,6.70
2019-04-23T19:36:17.549Z,7.60
2019-04-23T19:48:30.372Z,8.23
2019-04-23T19:54:37.828Z,22.32
2019-04-23T20:07:06.038Z,8.13
2019-04-23T20:12:50.055Z,7.90
2019-04-23T20:18:54.519Z,7.58
2019-04-23T20:32:00.357Z,7.72
2019-04-23T20:37:05.510Z,7.70
2019-04-23T20:43:14.776Z,8.30
2019-04-23T20:49:18.241Z,8.68
2019-04-23T20:55:25.951Z,8.70
2019-04-23T21:07:50.464Z,8.05
2019-04-23T21:13:55.022Z,7.97
2019-04-23T21:20:05.507Z,7.62
2019-04-23T21:25:47.665Z,7.78
2019-04-23T21:32:02.531Z,6.60
2019-04-23T21:37:58.897Z,7.75
2019-04-23T21:56:16.746Z,6.97
2019-04-23T22:02:21.961Z,7.47
2019-04-23T22:08:26.197Z,7.55
2019-04-23T22:26:38.138Z,7.50
2019-04-23T22:32:57.908Z,8.15
2019-04-23T22:38:51.114Z,6.83
2019-04-23T22:45:07.155Z,7.87
2019-04-23T22:51:04.855Z,7.78
2019-04-23T22:57:01.168Z,7.95
2019-04-23T23:03:22.826Z,7.75
2019-04-23T23:09:34.257Z,7.92
2019-04-23T23:15:30.589Z,7.28
2019-04-23T23:21:43.084Z,7.10
2019-04-23T23:33:48.957Z,6.90
2019-04-23T23:46:10.465Z,7.55
2019-04-23T23:51:58.295Z,7.37
2019-04-23T23:58:15.021Z,7.30
